createdAt,value
2023-01-20T00:01:48.456Z,99578.38
2023-01-20T00:04:19.203Z,99585.06
2023-01-20T00:06:46.749Z,99591.50
2023-01-20T00:09:18.802Z,99594.03
2023-01-20T00:11:46.872Z,99597.31
2023-01-20T00:14:14.444Z,99597.81
2023-01-20T00:16:41.567Z,99600.56
2023-01-20T00:19:09.451Z,99601.59
2023-01-20T00:21:36.599Z,99608.94
2023-01-20T00:24:03.936Z,99616.75
2023-01-20T00:26:31.020Z,99615.22
2023-01-20T00:28:58.221Z,99617.44
2023-01-20T00:31:31.491Z,99623.28
2023-01-20T00:34:01.172Z,99624.03
2023-01-20T00:36:31.418Z,99630.47
2023-01-20T00:38:59.258Z,99640.91
2023-01-20T00:41:26.581Z,99641.16
2023-01-20T00:43:53.733Z,99646.06
2023-01-20T00:46:23.053Z,99641.22
2023-01-20T00:48:50.218Z,99655.50
2023-01-20T00:51:17.864Z,99660.66
2023-01-20T00:53:45.157Z,99662.28
2023-01-20T00:56:12.423Z,99674.34
2023-01-20T00:58:39.530Z,99671.16
2023-01-20T01:01:06.806Z,99671.66
2023-01-20T01:03:33.996Z,99674.09
2023-01-20T01:06:14.110Z,99673.69
2023-01-20T01:08:42.111Z,99674.66
2023-01-20T01:11:10.408Z,99676.63
2023-01-20T01:13:38.722Z,99672.63
2023-01-20T01:16:12.209Z,99668.94
2023-01-20T01:18:40.105Z,99661.28
2023-01-20T01:21:10.617Z,99673.84
2023-01-20T01:23:37.864Z,99673.69
2023-01-20T01:26:05.575Z,99683.78
2023-01-20T01:28:32.695Z,99680.94
2023-01-20T01:31:07.796Z,99687.22
2023-01-20T01:33:35.387Z,99688.63
2023-01-20T01:36:04.184Z,99697.31
2023-01-20T01:38:32.198Z,99699.94
2023-01-20T01:40:59.629Z,99692.66
2023-01-20T01:43:31.672Z,99693.66
2023-01-20T01:45:59.796Z,99694.47
2023-01-20T01:48:43.454Z,99697.81
2023-01-20T01:51:31.201Z,99700.25
2023-01-20T01:54:09.815Z,99698.56
2023-01-20T01:56:38.808Z,99690.72
2023-01-20T01:59:06.269Z,99691.63
2023-01-20T02:01:38.079Z,99696.28
2023-01-20T02:04:13.571Z,99699.75
2023-01-20T02:06:45.555Z,99695.84
2023-01-20T02:09:13.257Z,99696.44
2023-01-20T02:11:48.645Z,99688.28
2023-01-20T02:14:26.376Z,99691.13
2023-01-20T02:17:20.042Z,99687.78
2023-01-20T02:19:56.077Z,99691.84
2023-01-20T02:22:53.414Z,99690.13
2023-01-20T02:25:59.725Z,99700.81
2023-01-20T02:28:47.604Z,99708.00
2023-01-20T02:32:11.363Z,99699.88
2023-01-20T02:35:12.477Z,99700.81
2023-01-20T02:37:48.573Z,99708.16
2023-01-20T02:40:30.657Z,99710.44
2023-01-20T02:42:57.593Z,99709.25
2023-01-20T02:46:20.468Z,99715.81
2023-01-20T02:49:11.952Z,99707.25
2023-01-20T02:51:55.707Z,99704.25
2023-01-20T02:54:26.804Z,99707.56
2023-01-20T02:56:56.562Z,99698.81
2023-01-20T02:59:30.772Z,99703.34
2023-01-20T03:02:05.047Z,99696.19
2023-01-20T03:04:45.469Z,99703.53
2023-01-20T03:07:14.751Z,99704.03
2023-01-20T03:09:48.494Z,99704.41
2023-01-20T03:12:24.477Z,99695.53
2023-01-20T03:14:53.773Z,99707.56
2023-01-20T03:17:22.132Z,99708.56
2023-01-20T03:19:49.729Z,99714.34
2023-01-20T03:22:17.057Z,99719.66
2023-01-20T03:24:46.407Z,99714.09
2023-01-20T03:27:13.766Z,99713.22
2023-01-20T03:29:40.890Z,99711.19
2023-01-20T03:32:10.993Z,99724.97
2023-01-20T03:34:41.549Z,99730.81
2023-01-20T03:37:11.263Z,99732.34
2023-01-20T03:39:40.020Z,99728.78
2023-01-20T03:42:19.448Z,99734.31
2023-01-20T03:45:08.368Z,99731.72
2023-01-20T03:47:59.742Z,99732.28
2023-01-20T03:50:31.819Z,99737.06
2023-01-20T03:53:23.636Z,99743.69
2023-01-20T03:56:02.758Z,99750.78
2023-01-20T03:58:36.425Z,99759.03
2023-01-20T04:01:18.805Z,99760.47
2023-01-20T04:03:52.779Z,99772.38
2023-01-20T04:06:23.917Z,99774.44
2023-01-20T04:09:07.914Z,99784.50
2023-01-20T04:11:35.309Z,99795.28
2023-01-20T04:14:02.994Z,99787.47
2023-01-20T04:16:30.093Z,99794.00
2023-01-20T04:18:57.199Z,99805.13
2023-01-20T04:21:35.167Z,99809.22
2023-01-20T04:24:43.424Z,99804.25
2023-01-20T04:27:10.547Z,99801.94
2023-01-20T04:29:38.222Z,99807.69
2023-01-20T04:32:05.571Z,99803.16
2023-01-20T04:34:33.072Z,99809.41
2023-01-20T04:37:00.158Z,99810.88
2023-01-20T04:39:27.280Z,99817.06
2023-01-20T04:41:54.450Z,99815.69
2023-01-20T04:44:21.991Z,99814.63
2023-01-20T04:46:49.108Z,99813.63
2023-01-20T04:49:16.478Z,99828.06
2023-01-20T04:51:43.556Z,99835.19
2023-01-20T04:54:12.023Z,99839.56
2023-01-20T04:56:39.200Z,99838.84
2023-01-20T04:59:06.877Z,99849.34
2023-01-20T05:01:34.194Z,99852.00
2023-01-20T05:04:01.323Z,99872.16
2023-01-20T05:06:28.555Z,99867.69
2023-01-20T05:08:55.769Z,99869.97
2023-01-20T05:11:23.033Z,99869.97
2023-01-20T05:13:50.342Z,99867.28
2023-01-20T05:16:23.877Z,99876.66
2023-01-20T05:18:51.669Z,99871.53
2023-01-20T05:21:18.780Z,99870.59
2023-01-20T05:23:46.038Z,99866.31
2023-01-20T05:26:13.242Z,99881.81
2023-01-20T05:28:40.465Z,99882.84
2023-01-20T05:31:07.712Z,99886.44
2023-01-20T05:33:35.308Z,99883.91
2023-01-20T05:36:06.481Z,99887.97
2023-01-20T05:38:33.730Z,99894.25
2023-01-20T05:41:06.580Z,99889.75
2023-01-20T05:43:34.072Z,99908.16
2023-01-20T05:46:01.447Z,99911.13
2023-01-20T05:48:28.681Z,99906.47
2023-01-20T05:50:55.836Z,99908.72
2023-01-20T05:53:23.034Z,99906.16
2023-01-20T05:55:50.268Z,99909.22
2023-01-20T05:58:17.394Z,99936.66
2023-01-20T06:00:44.470Z,99941.41
2023-01-20T06:03:11.525Z,99945.03
2023-01-20T06:05:38.625Z,99959.75
2023-01-20T06:08:06.221Z,99986.38
2023-01-20T06:10:33.301Z,99988.16
2023-01-20T06:13:00.593Z,99998.94
2023-01-20T06:15:27.998Z,99991.69
2023-01-20T06:17:55.922Z,100003.47
2023-01-20T06:20:23.110Z,99992.94
2023-01-20T06:22:54.364Z,100010.31
2023-01-20T06:25:21.514Z,100014.06
2023-01-20T06:27:48.606Z,100019.66
2023-01-20T06:30:16.248Z,100025.16
2023-01-20T06:32:43.323Z,100037.41
2023-01-20T06:35:11.415Z,100038.19
2023-01-20T06:37:38.561Z,100035.22
2023-01-20T06:40:06.219Z,100035.41
2023-01-20T06:42:33.310Z,100039.72
2023-01-20T06:45:00.314Z,100036.75
2023-01-20T06:47:27.365Z,100033.06
2023-01-20T06:49:54.495Z,100039.63
2023-01-20T06:52:21.496Z,100041.69
2023-01-20T06:54:48.558Z,100042.50
2023-01-20T06:57:15.621Z,100046.44
2023-01-20T06:59:42.684Z,100054.28
2023-01-20T07:02:13.998Z,100062.50
2023-01-20T07:04:42.648Z,100057.28
2023-01-20T07:07:12.932Z,100047.72
2023-01-20T07:09:40.075Z,100052.31
2023-01-20T07:12:07.260Z,100060.84
2023-01-20T07:14:34.470Z,100073.28
2023-01-20T07:17:01.748Z,100068.50
2023-01-20T07:19:28.852Z,100070.13
2023-01-20T07:21:55.986Z,100074.28
2023-01-20T07:24:23.061Z,100092.16
2023-01-20T07:26:54.142Z,100090.72
2023-01-20T07:29:21.321Z,100089.19
2023-01-20T07:31:48.546Z,100092.25
2023-01-20T07:34:15.665Z,100086.22
2023-01-20T07:36:42.834Z,100094.69
2023-01-20T07:39:13.171Z,100090.72
2023-01-20T07:41:40.485Z,100090.19
2023-01-20T07:44:07.533Z,100077.88
2023-01-20T07:46:34.782Z,100088.94
2023-01-20T07:49:01.882Z,100091.81
2023-01-20T07:51:28.997Z,100093.06
2023-01-20T07:53:56.128Z,100095.41
2023-01-20T07:56:27.849Z,100082.91
2023-01-20T07:58:55.379Z,100101.72
2023-01-20T08:01:29.069Z,100102.25
2023-01-20T08:03:58.080Z,100094.94
2023-01-20T08:06:26.606Z,100092.63
2023-01-20T08:08:57.053Z,100098.09
2023-01-20T08:11:25.736Z,100104.31
2023-01-20T08:13:53.781Z,100103.94
2023-01-20T08:16:21.108Z,100106.47
2023-01-20T08:18:48.953Z,100110.06
2023-01-20T08:21:21.903Z,100112.38
2023-01-20T08:23:50.316Z,100107.59
2023-01-20T08:26:19.565Z,100112.09
2023-01-20T08:28:47.356Z,100106.78
2023-01-20T08:31:19.484Z,100098.31
2023-01-20T08:33:47.126Z,100111.38
2023-01-20T08:36:18.244Z,100110.00
2023-01-20T08:38:47.424Z,100107.13
2023-01-20T08:41:25.085Z,100108.09
2023-01-20T08:43:52.269Z,100103.06
2023-01-20T08:46:21.329Z,100115.31
2023-01-20T08:48:50.511Z,100122.31
2023-01-20T08:51:22.077Z,100125.38
2023-01-20T08:53:49.498Z,100129.34
2023-01-20T08:56:18.381Z,100131.16
2023-01-20T08:58:45.988Z,100131.78
2023-01-20T09:01:21.499Z,100129.72
2023-01-20T09:04:03.295Z,100129.44
2023-01-20T09:06:41.414Z,100121.69
2023-01-20T09:09:08.668Z,100124.94
2023-01-20T09:11:35.949Z,100125.19
2023-01-20T09:14:03.884Z,100117.28
2023-01-20T09:16:31.024Z,100123.66
2023-01-20T09:18:58.189Z,100131.84
2023-01-20T09:21:25.300Z,100135.25
2023-01-20T09:23:52.443Z,100138.44
2023-01-20T09:26:34.192Z,100152.75
2023-01-20T09:29:09.235Z,100148.63
2023-01-20T09:31:46.419Z,100145.81
2023-01-20T09:34:21.663Z,100154.59
2023-01-20T09:37:25.596Z,100156.94
2023-01-20T09:40:11.307Z,100165.22
2023-01-20T09:43:33.570Z,100162.50
2023-01-20T09:46:14.388Z,100170.44
2023-01-20T09:49:38.213Z,100186.00
2023-01-20T09:52:34.679Z,100183.94
2023-01-20T09:55:12.828Z,100173.47
2023-01-20T09:57:43.855Z,100183.94
2023-01-20T10:00:21.995Z,100184.09
2023-01-20T10:02:55.909Z,100185.19
2023-01-20T10:05:33.077Z,100170.28
2023-01-20T10:08:27.921Z,100171.34
2023-01-20T10:11:09.728Z,100182.88
2023-01-20T10:14:06.557Z,100189.09
2023-01-20T10:16:42.347Z,100177.56
2023-01-20T10:19:45.408Z,100176.56
2023-01-20T10:22:23.452Z,100175.19
2023-01-20T10:25:09.038Z,100176.81
2023-01-20T10:27:42.437Z,100178.47
2023-01-20T10:30:13.492Z,100181.34
2023-01-20T10:33:09.666Z,100180.72
2023-01-20T10:35:49.457Z,100185.63
2023-01-20T10:38:58.165Z,100188.59
2023-01-20T10:41:31.072Z,100187.06
2023-01-20T10:43:59.582Z,100190.88
2023-01-20T10:47:13.832Z,100195.63
2023-01-20T10:50:10.697Z,100184.28
2023-01-20T10:52:56.462Z,100198.03
2023-01-20T10:56:02.293Z,100203.31
2023-01-20T10:58:41.036Z,100198.34
2023-01-20T11:01:15.098Z,100209.25
2023-01-20T11:03:45.735Z,100204.19
2023-01-20T11:06:25.389Z,100198.78
2023-01-20T11:08:53.245Z,100198.03
2023-01-20T11:11:25.989Z,100203.13
2023-01-20T11:13:53.607Z,100202.63
2023-01-20T11:16:31.337Z,100197.53
2023-01-20T11:19:02.459Z,100202.53
2023-01-20T11:21:36.022Z,100206.69
2023-01-20T11:24:24.876Z,100205.16
2023-01-20T11:26:52.111Z,100203.13
2023-01-20T11:29:19.181Z,100204.09
2023-01-20T11:31:54.531Z,100208.09
2023-01-20T11:34:37.214Z,100212.66
2023-01-20T11:37:09.958Z,100218.22
2023-01-20T11:39:45.307Z,100215.03
2023-01-20T11:42:28.303Z,100226.81
2023-01-20T11:45:19.581Z,100232.81
2023-01-20T11:48:00.675Z,100228.88
2023-01-20T11:50:50.412Z,100238.19
2023-01-20T11:53:26.620Z,100235.66
2023-01-20T11:55:59.698Z,100247.13
2023-01-20T11:58:49.240Z,100249.69
2023-01-20T12:01:54.104Z,100254.00
2023-01-20T12:04:36.273Z,100246.66
2023-01-20T12:07:11.007Z,100248.72
2023-01-20T12:09:45.877Z,100245.91
2023-01-20T12:12:42.139Z,100251.13
2023-01-20T12:15:33.773Z,100254.50
2023-01-20T12:18:34.484Z,100260.53
2023-01-20T12:21:18.407Z,100254.97
2023-01-20T12:24:11.667Z,100266.78
2023-01-20T12:26:39.764Z,100272.47
2023-01-20T12:29:44.891Z,100262.38
2023-01-20T12:32:12.225Z,100269.53
2023-01-20T12:34:39.321Z,100267.47
2023-01-20T12:37:50.146Z,100277.38
2023-01-20T12:40:36.992Z,100282.41
2023-01-20T12:43:33.290Z,100273.66
2023-01-20T12:46:31.866Z,100268.69
2023-01-20T12:49:30.648Z,100273.03
2023-01-20T12:52:16.746Z,100270.88
2023-01-20T12:55:33.675Z,100269.81
2023-01-20T12:58:41.166Z,100273.56
2023-01-20T13:01:34.146Z,100283.59
2023-01-20T13:04:44.196Z,100284.50
2023-01-20T13:07:49.518Z,100274.03
2023-01-20T13:10:47.044Z,100278.91
2023-01-20T13:13:29.836Z,100281.25
2023-01-20T13:16:18.232Z,100278.53
2023-01-20T13:19:06.481Z,100283.50
2023-01-20T13:21:34.853Z,100289.38
2023-01-20T13:24:04.820Z,100297.75
2023-01-20T13:26:33.154Z,100288.44
2023-01-20T13:29:00.747Z,100288.72
2023-01-20T13:31:45.729Z,100288.44
2023-01-20T13:34:21.796Z,100285.38
2023-01-20T13:37:04.148Z,100281.88
2023-01-20T13:39:45.780Z,100268.28
2023-01-20T13:42:37.656Z,100262.13
2023-01-20T13:45:22.232Z,100272.56
2023-01-20T13:47:59.640Z,100277.19
2023-01-20T13:50:33.635Z,100273.84
2023-01-20T13:53:00.754Z,100280.00
2023-01-20T13:55:50.960Z,100274.31
2023-01-20T13:58:34.868Z,100265.03
2023-01-20T14:01:10.721Z,100248.44
2023-01-20T14:03:39.908Z,100258.63
2023-01-20T14:06:14.258Z,100261.78
2023-01-20T14:08:47.771Z,100272.63
2023-01-20T14:11:22.329Z,100270.25
2023-01-20T14:13:56.077Z,100274.31
2023-01-20T14:16:36.524Z,100287.09
2023-01-20T14:19:32.680Z,100284.63
2023-01-20T14:22:19.829Z,100287.16
2023-01-20T14:24:50.051Z,100296.28
2023-01-20T14:27:47.991Z,100317.09
2023-01-20T14:30:27.532Z,100316.03
2023-01-20T14:32:55.017Z,100324.84
2023-01-20T14:35:34.575Z,100324.16
2023-01-20T14:38:02.440Z,100322.56
2023-01-20T14:40:35.418Z,100327.19
2023-01-20T14:43:13.361Z,100318.72
2023-01-20T14:45:45.463Z,100322.66
2023-01-20T14:48:24.701Z,100329.41
2023-01-20T14:51:02.760Z,100334.41
2023-01-20T14:53:29.899Z,100338.19
2023-01-20T14:56:07.804Z,100350.06
2023-01-20T14:58:36.606Z,100351.38
2023-01-20T15:01:06.674Z,100366.72
2023-01-20T15:03:34.252Z,100366.91
2023-01-20T15:06:10.417Z,100370.31
2023-01-20T15:08:37.494Z,100375.66
2023-01-20T15:11:20.676Z,100365.69
2023-01-20T15:14:00.258Z,100364.22
2023-01-20T15:16:37.119Z,100372.13
2023-01-20T15:19:16.689Z,100383.19
2023-01-20T15:21:48.599Z,100379.34
2023-01-20T15:24:32.395Z,100385.47
2023-01-20T15:27:02.253Z,100386.72
2023-01-20T15:29:33.631Z,100383.41
2023-01-20T15:32:09.241Z,100382.25
2023-01-20T15:34:36.402Z,100390.09
2023-01-20T15:37:16.482Z,100399.91
2023-01-20T15:39:43.639Z,100397.41
2023-01-20T15:42:12.419Z,100383.28
2023-01-20T15:44:39.555Z,100401.94
2023-01-20T15:47:29.329Z,100401.13
2023-01-20T15:49:59.546Z,100399.59
2023-01-20T15:52:26.696Z,100390.97
2023-01-20T15:54:53.731Z,100391.03
2023-01-20T15:57:20.879Z,100387.03
2023-01-20T15:59:49.863Z,100388.94
2023-01-20T16:02:22.747Z,100385.16
2023-01-20T16:04:50.364Z,100390.16
2023-01-20T16:07:20.704Z,100389.66
2023-01-20T16:09:48.028Z,100388.66
2023-01-20T16:12:17.812Z,100385.44
2023-01-20T16:14:45.888Z,100392.28
2023-01-20T16:17:17.054Z,100387.03
2023-01-20T16:19:44.326Z,100396.06
2023-01-20T16:22:13.365Z,100400.88
2023-01-20T16:24:41.997Z,100405.81
2023-01-20T16:27:20.562Z,100403.84
2023-01-20T16:29:48.283Z,100407.28
2023-01-20T16:32:18.202Z,100404.59
2023-01-20T16:34:47.007Z,100417.09
2023-01-20T16:37:14.949Z,100420.19
2023-01-20T16:39:42.209Z,100431.84
2023-01-20T16:42:14.611Z,100426.56
2023-01-20T16:44:41.731Z,100435.38
2023-01-20T16:47:08.797Z,100428.50
2023-01-20T16:49:35.976Z,100429.94
2023-01-20T16:52:03.294Z,100430.94
2023-01-20T16:54:30.402Z,100426.59
2023-01-20T16:56:57.513Z,100436.78
2023-01-20T16:59:25.959Z,100444.53
2023-01-20T17:01:53.262Z,100449.03
2023-01-20T17:04:20.404Z,100450.47
2023-01-20T17:06:47.498Z,100453.50
2023-01-20T17:09:14.702Z,100457.75
2023-01-20T17:11:41.854Z,100455.44
2023-01-20T17:14:11.398Z,100459.09
2023-01-20T17:16:39.564Z,100449.06
2023-01-20T17:19:07.380Z,100471.31
2023-01-20T17:21:38.205Z,100464.16
2023-01-20T17:24:06.386Z,100469.53
2023-01-20T17:26:33.847Z,100469.81
2023-01-20T17:29:04.288Z,100475.00
2023-01-20T17:31:35.653Z,100462.75
2023-01-20T17:34:11.363Z,100473.81
2023-01-20T17:36:38.821Z,100471.53
2023-01-20T17:39:06.988Z,100464.56
2023-01-20T17:41:34.647Z,100463.22
2023-01-20T17:44:04.034Z,100474.28
2023-01-20T17:46:32.241Z,100468.03
2023-01-20T17:49:01.853Z,100469.25
2023-01-20T17:51:30.251Z,100479.88
2023-01-20T17:54:03.848Z,100478.72
2023-01-20T17:56:31.652Z,100470.50
2023-01-20T17:58:58.732Z,100475.44
2023-01-20T18:01:29.600Z,100481.00
2023-01-20T18:03:58.867Z,100488.44
2023-01-20T18:06:27.781Z,100487.91
2023-01-20T18:08:58.084Z,100490.03
2023-01-20T18:11:27.247Z,100493.31
2023-01-20T18:13:57.357Z,100490.09
2023-01-20T18:16:33.316Z,100488.22
2023-01-20T18:19:00.703Z,100489.22
2023-01-20T18:21:34.608Z,100486.75
2023-01-20T18:24:03.850Z,100468.19
2023-01-20T18:26:34.789Z,100475.38
2023-01-20T18:29:07.838Z,100483.53
2023-01-20T18:31:35.593Z,100482.44
2023-01-20T18:34:06.784Z,100481.63
2023-01-20T18:36:37.758Z,100485.34
2023-01-20T18:39:16.690Z,100487.22
2023-01-20T18:41:44.259Z,100479.53
2023-01-20T18:44:11.910Z,100491.88
2023-01-20T18:46:39.276Z,100488.47
2023-01-20T18:49:09.578Z,100492.25
2023-01-20T18:51:36.969Z,100488.34
2023-01-20T18:54:10.961Z,100491.97
2023-01-20T18:56:38.328Z,100499.38
2023-01-20T18:59:06.831Z,100506.94
2023-01-20T19:01:37.347Z,100490.72
2023-01-20T19:04:06.583Z,100505.50
2023-01-20T19:06:39.054Z,100495.28
2023-01-20T19:09:07.603Z,100494.06
2023-01-20T19:11:40.190Z,100500.19
2023-01-20T19:14:11.692Z,100499.50
2023-01-20T19:16:42.366Z,100487.75
2023-01-20T19:19:11.530Z,100489.66
2023-01-20T19:21:38.610Z,100492.28
2023-01-20T19:24:08.043Z,100494.66
2023-01-20T19:26:37.536Z,100499.59
2023-01-20T19:29:08.591Z,100509.84
2023-01-20T19:31:39.765Z,100514.63
2023-01-20T19:34:09.186Z,100504.47
2023-01-20T19:36:36.669Z,100499.78
2023-01-20T19:39:04.523Z,100500.97
2023-01-20T19:41:34.549Z,100506.00
2023-01-20T19:44:04.537Z,100502.59
2023-01-20T19:46:36.708Z,100500.97
2023-01-20T19:49:04.171Z,100500.94
2023-01-20T19:51:31.688Z,100503.59
2023-01-20T19:54:01.501Z,100504.19
2023-01-20T19:56:35.378Z,100506.97
2023-01-20T19:59:09.092Z,100505.78
2023-01-20T20:01:37.520Z,100510.63
2023-01-20T20:04:08.036Z,100504.84
2023-01-20T20:06:44.595Z,100497.97
2023-01-20T20:09:20.077Z,100495.59
2023-01-20T20:11:48.505Z,100489.13
2023-01-20T20:14:19.490Z,100485.63
2023-01-20T20:16:47.666Z,100485.03
2023-01-20T20:19:19.021Z,100489.13
2023-01-20T20:21:46.679Z,100486.03
2023-01-20T20:24:16.422Z,100482.22
2023-01-20T20:26:46.190Z,100480.91
2023-01-20T20:29:15.832Z,100477.31
2023-01-20T20:31:43.047Z,100479.72
2023-01-20T20:34:15.732Z,100480.81
2023-01-20T20:36:43.013Z,100471.19
2023-01-20T20:39:15.676Z,100474.59
2023-01-20T20:41:43.566Z,100472.69
2023-01-20T20:44:11.559Z,100456.81
2023-01-20T20:46:38.668Z,100465.19
2023-01-20T20:49:05.865Z,100459.56
2023-01-20T20:51:34.832Z,100470.38
2023-01-20T20:54:03.043Z,100465.66
2023-01-20T20:56:34.039Z,100469.38
2023-01-20T20:59:03.573Z,100469.69
2023-01-20T21:01:33.518Z,100472.09
2023-01-20T21:04:02.205Z,100466.41
2023-01-20T21:06:29.652Z,100481.22
2023-01-20T21:08:57.063Z,100457.03
2023-01-20T21:11:25.010Z,100476.50
2023-01-20T21:13:52.941Z,100482.50
2023-01-20T21:16:23.073Z,100484.00
2023-01-20T21:18:52.698Z,100476.97
2023-01-20T21:21:21.052Z,100493.03
2023-01-20T21:23:54.130Z,100482.75
2023-01-20T21:26:22.580Z,100477.47
2023-01-20T21:28:49.814Z,100475.72
2023-01-20T21:31:23.699Z,100469.91
2023-01-20T21:33:58.363Z,100466.53
2023-01-20T21:36:30.014Z,100469.94
2023-01-20T21:38:59.577Z,100475.94
2023-01-20T21:41:26.662Z,100458.84
2023-01-20T21:44:12.937Z,100476.66
2023-01-20T21:46:40.819Z,100458.31
2023-01-20T21:49:30.177Z,100467.56
2023-01-20T21:52:16.029Z,100468.34
2023-01-20T21:54:45.428Z,100460.09
2023-01-20T21:57:13.352Z,100466.94
2023-01-20T21:59:41.010Z,100456.56
2023-01-20T22:02:08.832Z,100457.19
2023-01-20T22:04:36.050Z,100451.88
2023-01-20T22:07:03.266Z,100459.53
2023-01-20T22:09:30.337Z,100462.44
2023-01-20T22:11:57.459Z,100465.88
2023-01-20T22:14:24.536Z,100469.72
2023-01-20T22:16:52.147Z,100446.66
2023-01-20T22:19:19.257Z,100450.03
2023-01-20T22:21:46.339Z,100451.78
2023-01-20T22:24:13.566Z,100451.09
2023-01-20T22:26:40.893Z,100449.19
2023-01-20T22:29:08.108Z,100452.47
2023-01-20T22:31:35.293Z,100443.66
2023-01-20T22:34:04.555Z,100444.97
2023-01-20T22:36:32.353Z,100446.03
2023-01-20T22:38:59.787Z,100438.31
2023-01-20T22:41:27.101Z,100429.38
2023-01-20T22:43:55.843Z,100421.38
2023-01-20T22:46:25.977Z,100409.88
2023-01-20T22:48:54.137Z,100410.84
2023-01-20T22:51:23.990Z,100407.66
2023-01-20T22:53:57.698Z,100416.34
2023-01-20T22:56:28.046Z,100414.19
2023-01-20T22:58:57.507Z,100387.50
2023-01-20T23:01:32.811Z,100391.78
2023-01-20T23:04:03.311Z,100384.16
2023-01-20T23:06:34.026Z,100395.00
2023-01-20T23:09:05.533Z,100393.81
2023-01-20T23:11:34.006Z,100403.78
2023-01-20T23:14:01.182Z,100383.25
2023-01-20T23:16:28.443Z,100397.31
2023-01-20T23:18:55.589Z,100396.38
2023-01-20T23:21:24.499Z,100388.69
2023-01-20T23:23:54.819Z,100397.22
2023-01-20T23:26:27.181Z,100387.19
2023-01-20T23:28:55.574Z,100393.34
2023-01-20T23:31:25.351Z,100378.97
2023-01-20T23:33:54.334Z,100382.31
2023-01-20T23:36:26.401Z,100382.69
2023-01-20T23:38:55.819Z,100377.53
2023-01-20T23:41:23.788Z,100371.47
2023-01-20T23:43:50.866Z,100360.13
2023-01-20T23:46:18.088Z,100357.03
2023-01-20T23:48:47.073Z,100349.91
2023-01-20T23:51:15.182Z,100357.34
2023-01-20T23:53:42.857Z,100368.16
2023-01-20T23:56:17.958Z,100370.25
2023-01-20T23:58:45.852Z,100363.78
